Aviation Digital Data Service (ADDS)

Output produced by METARs form (1301 UTC 19 January 2019)
found at http://www.aviationweather.gov/metar/data/
 
METAR text: RJAF 190700Z 34007KT 290V360 CAVOK 04/M08 Q1017
Conditions at: RJAF (MATSUMOTO AIRPOR, JP) observed 0700 UTC 19 January 2019
Temperature: 4.0°C (39°F)
Dewpoint: -8.0°C (18°F) [RH = 41%]
Pressure (altimeter): 30.03 inches Hg (1017.0 mb)
Winds: from the NNW (340 degrees) at 8 MPH (7 knots; 3.6 m/s)
Visibility: 6 or more miles (10+ km)
Ceiling: ceiling and visibility are OK
Clouds: unknown
Weather: no significant weather observed at this time

METAR text: RJAF 190600Z 36005KT 330V050 CAVOK 05/M09 Q1017
Conditions at: RJAF (MATSUMOTO AIRPOR, JP) observed 0600 UTC 19 January 2019
Temperature: 5.0°C (41°F)
Dewpoint: -9.0°C (16°F) [RH = 35%]
Pressure (altimeter): 30.03 inches Hg (1017.0 mb)
Winds: from the N (360 degrees) at 6 MPH (5 knots; 2.6 m/s)
Visibility: 6 or more miles (10+ km)
Ceiling: ceiling and visibility are OK
Clouds: unknown
Weather: no significant weather observed at this time

METAR text: RJAF 190500Z 35003KT 300V050 9999 FEW050 SCT150 BKN/// 04/M09 Q1018
Conditions at: RJAF (MATSUMOTO AIRPOR, JP) observed 0500 UTC 19 January 2019
Temperature: 4.0°C (39°F)
Dewpoint: -9.0°C (16°F) [RH = 38%]
Pressure (altimeter): 30.06 inches Hg (1018.0 mb)
Winds: from the N (350 degrees) at 3 MPH (3 knots; 1.5 m/s)
Visibility: 6 or more miles (10+ km)
Ceiling: at least 12,000 feet AGL
Clouds: few clouds at 5000 feet AGL
scattered clouds at 15000 feet AGL
Weather: no significant weather observed at this time

METAR text: RJAF 190400Z VRB02KT 9999 FEW050 BKN/// 04/M09 Q1018
Conditions at: RJAF (MATSUMOTO AIRPOR, JP) observed 0400 UTC 19 January 2019
Temperature: 4.0°C (39°F)
Dewpoint: -9.0°C (16°F) [RH = 38%]
Pressure (altimeter): 30.06 inches Hg (1018.0 mb)
Winds: variable direction winds at 2 MPH (2 knots; 1.0 m/s)
Visibility: 6 or more miles (10+ km)
Ceiling: at least 12,000 feet AGL
Clouds: few clouds at 5000 feet AGL
Weather: no significant weather observed at this time

METAR text: RJAF 190300Z 35004KT 270V050 9999 FEW050 02/M08 Q1019
Conditions at: RJAF (MATSUMOTO AIRPOR, JP) observed 0300 UTC 19 January 2019
Temperature: 2.0°C (36°F)
Dewpoint: -8.0°C (18°F) [RH = 47%]
Pressure (altimeter): 30.09 inches Hg (1019.0 mb)
Winds: from the N (350 degrees) at 5 MPH (4 knots; 2.1 m/s)
Visibility: 6 or more miles (10+ km)
Ceiling: at least 12,000 feet AGL
Clouds: few clouds at 5000 feet AGL
Weather: no significant weather observed at this time

METAR text: RJAF 190200Z VRB04KT 9999 FEW050 01/M08 Q1020
Conditions at: RJAF (MATSUMOTO AIRPOR, JP) observed 0200 UTC 19 January 2019
Temperature: 1.0°C (34°F)
Dewpoint: -8.0°C (18°F) [RH = 51%]
Pressure (altimeter): 30.12 inches Hg (1020.0 mb)
Winds: variable direction winds at 5 MPH (4 knots; 2.1 m/s)
Visibility: 6 or more miles (10+ km)
Ceiling: at least 12,000 feet AGL
Clouds: few clouds at 5000 feet AGL
Weather: no significant weather observed at this time

METAR text: RJAF 190100Z VRB02KT 9999 FEW050 M02/M09 Q1021
Conditions at: RJAF (MATSUMOTO AIRPOR, JP) observed 0100 UTC 19 January 2019
Temperature: -2.0°C (28°F)
Dewpoint: -9.0°C (16°F) [RH = 59%]
Pressure (altimeter): 30.15 inches Hg (1021.0 mb)
Winds: variable direction winds at 2 MPH (2 knots; 1.0 m/s)
Visibility: 6 or more miles (10+ km)
Ceiling: at least 12,000 feet AGL
Clouds: few clouds at 5000 feet AGL
Weather: no significant weather observed at this time

METAR text: RJAF 190000Z VRB02KT 9999 FEW050 M03/M08 Q1021
Conditions at: RJAF (MATSUMOTO AIRPOR, JP) observed 0000 UTC 19 January 2019
Temperature: -3.0°C (27°F)
Dewpoint: -8.0°C (18°F) [RH = 68%]
Pressure (altimeter): 30.15 inches Hg (1021.0 mb)
Winds: variable direction winds at 2 MPH (2 knots; 1.0 m/s)
Visibility: 6 or more miles (10+ km)
Ceiling: at least 12,000 feet AGL
Clouds: few clouds at 5000 feet AGL
Weather: no significant weather observed at this time

METAR text: RJAF 182330Z VRB02KT 9999 FEW050 M04/M08 Q1021
Conditions at: RJAF (MATSUMOTO AIRPOR, JP) observed 2330 UTC 18 January 2019
Temperature: -4.0°C (25°F)
Dewpoint: -8.0°C (18°F) [RH = 74%]
Pressure (altimeter): 30.15 inches Hg (1021.0 mb)
Winds: variable direction winds at 2 MPH (2 knots; 1.0 m/s)
Visibility: 6 or more miles (10+ km)
Ceiling: at least 12,000 feet AGL
Clouds: few clouds at 5000 feet AGL
Weather: no significant weather observed at this time

METAR text: RJAF 180700Z 26011KT 230V300 9999 FEW060 02/M14 Q1016
Conditions at: RJAF (MATSUMOTO AIRPOR, JP) observed 0700 UTC 18 January 2019
Temperature: 2.0°C (36°F)
Dewpoint: -14.0°C ( 7°F) [RH = 29%]
Pressure (altimeter): 30.00 inches Hg (1016.0 mb)
Winds: from the W (260 degrees) at 13 MPH (11 knots; 5.7 m/s)
Visibility: 6 or more miles (10+ km)
Ceiling: at least 12,000 feet AGL
Clouds: few clouds at 6000 feet AGL
Weather: no significant weather observed at this time

METAR text: RJAF 180600Z 27009KT 240V300 9999 BLDU FEW070 03/M13 Q1015
Conditions at: RJAF (MATSUMOTO AIRPOR, JP) observed 0600 UTC 18 January 2019
Temperature: 3.0°C (37°F)
Dewpoint: -13.0°C ( 9°F) [RH = 30%]
Pressure (altimeter): 29.97 inches Hg (1015.0 mb)
Winds: from the W (270 degrees) at 10 MPH (9 knots; 4.6 m/s)
Visibility: 6 or more miles (10+ km)
Ceiling: at least 12,000 feet AGL
Clouds: few clouds at 7000 feet AGL
Weather: BLDU  (blowing dust)

METAR text: RJAF 180500Z 30011KT 260V330 9999 FEW070 04/M13 Q1014
Conditions at: RJAF (MATSUMOTO AIRPOR, JP) observed 0500 UTC 18 January 2019
Temperature: 4.0°C (39°F)
Dewpoint: -13.0°C ( 9°F) [RH = 28%]
Pressure (altimeter): 29.94 inches Hg (1014.0 mb)
Winds: from the WNW (300 degrees) at 13 MPH (11 knots; 5.7 m/s)
Visibility: 6 or more miles (10+ km)
Ceiling: at least 12,000 feet AGL
Clouds: few clouds at 7000 feet AGL
Weather: no significant weather observed at this time

METAR text: RJAF 180400Z VRB04KT 9999 FEW040 03/M14 Q1015
Conditions at: RJAF (MATSUMOTO AIRPOR, JP) observed 0400 UTC 18 January 2019
Temperature: 3.0°C (37°F)
Dewpoint: -14.0°C ( 7°F) [RH = 27%]
Pressure (altimeter): 29.97 inches Hg (1015.0 mb)
Winds: variable direction winds at 5 MPH (4 knots; 2.1 m/s)
Visibility: 6 or more miles (10+ km)
Ceiling: at least 12,000 feet AGL
Clouds: few clouds at 4000 feet AGL
Weather: no significant weather observed at this time

METAR text: RJAF 180300Z 36003KT 290V050 9999 FEW040 02/M12 Q1015
Conditions at: RJAF (MATSUMOTO AIRPOR, JP) observed 0300 UTC 18 January 2019
Temperature: 2.0°C (36°F)
Dewpoint: -12.0°C (10°F) [RH = 35%]
Pressure (altimeter): 29.97 inches Hg (1015.0 mb)
Winds: from the N (360 degrees) at 3 MPH (3 knots; 1.5 m/s)
Visibility: 6 or more miles (10+ km)
Ceiling: at least 12,000 feet AGL
Clouds: few clouds at 4000 feet AGL
Weather: no significant weather observed at this time

METAR text: RJAF 180200Z 09003KT 040V150 9999 FEW035 01/M12 Q1016
Conditions at: RJAF (MATSUMOTO AIRPOR, JP) observed 0200 UTC 18 January 2019
Temperature: 1.0°C (34°F)
Dewpoint: -12.0°C (10°F) [RH = 37%]
Pressure (altimeter): 30.00 inches Hg (1016.0 mb)
Winds: from the E (90 degrees) at 3 MPH (3 knots; 1.5 m/s)
Visibility: 6 or more miles (10+ km)
Ceiling: at least 12,000 feet AGL
Clouds: few clouds at 3500 feet AGL
Weather: no significant weather observed at this time